Time;durP1;ratioP1;P1;durP2;ratioP2;P2;SDS_P1;SDS_P2;PMS_P1;PMS_P2;Temp;Humidity;BMP_temperature;BMP_pressure;BME280_temperature;BME280_humidity;BME280_pressure;Samples;Min_cycle;Max_cycle;Signal;HPM_P1;HPM_P2
2024/01/27 00:02:08;;;;;;;0.68;0.68;;;;;;;1.81;100.00;101137.88;5043930;28;20574;-59
2024/01/27 00:04:36;;;;;;;0.70;0.70;;;;;;;1.81;100.00;101135.22;5024537;28;20041;-59
2024/01/27 00:07:03;;;;;;;0.70;0.70;;;;;;;1.73;100.00;101135.94;5043603;28;20055;-59
2024/01/27 00:09:30;;;;;;;0.65;0.65;;;;;;;1.67;100.00;101130.34;5045928;28;20051;-59
2024/01/27 00:11:59;;;;;;;0.65;0.65;;;;;;;1.74;100.00;101128.81;5039621;28;20450;-59
2024/01/27 00:14:26;;;;;;;0.55;0.55;;;;;;;1.67;100.00;101120.63;5042502;28;20041;-59
2024/01/27 00:16:53;;;;;;;0.70;0.70;;;;;;;1.69;100.00;101131.06;5040216;28;20425;-59
2024/01/27 00:19:20;;;;;;;0.70;0.70;;;;;;;1.66;100.00;101124.22;5043309;28;20075;-58
2024/01/27 00:21:47;;;;;;;0.60;0.60;;;;;;;1.66;100.00;101118.13;5046061;28;20056;-58
2024/01/27 00:24:14;;;;;;;0.63;0.63;;;;;;;1.68;100.00;101122.28;5043527;28;20099;-59
2024/01/27 00:26:41;;;;;;;0.70;0.70;;;;;;;1.52;100.00;101124.63;5042082;28;20214;-59
2024/01/27 00:29:10;;;;;;;0.55;0.55;;;;;;;1.50;100.00;101118.69;5044048;28;20045;-59
2024/01/27 00:31:37;;;;;;;0.55;0.55;;;;;;;1.48;100.00;101121.44;5043519;28;20061;-59
2024/01/27 00:34:04;;;;;;;0.68;0.68;;;;;;;1.49;100.00;101128.38;5043756;28;20073;-59
2024/01/27 00:36:32;;;;;;;0.70;0.70;;;;;;;1.41;100.00;101117.66;5042537;28;20380;-59
2024/01/27 00:39:00;;;;;;;0.65;0.65;;;;;;;1.29;100.00;101116.13;5023119;28;20103;-59
2024/01/27 00:41:27;;;;;;;0.70;0.70;;;;;;;1.26;100.00;101122.50;5039507;28;20103;-59
2024/01/27 00:43:54;;;;;;;0.57;0.57;;;;;;;1.22;100.00;101114.97;5042068;28;20555;-58
2024/01/27 00:46:23;;;;;;;0.70;0.70;;;;;;;1.13;100.00;101129.03;5041087;28;20052;-59
2024/01/27 00:48:50;;;;;;;0.70;0.70;;;;;;;1.10;100.00;101129.25;5043523;28;20045;-59
2024/01/27 00:51:17;;;;;;;0.70;0.70;;;;;;;1.11;100.00;101130.97;5043473;28;20029;-58
2024/01/27 00:53:44;;;;;;;0.70;0.70;;;;;;;1.14;100.00;101133.31;5042127;28;20041;-59
2024/01/27 00:56:11;;;;;;;0.77;0.77;;;;;;;1.11;100.00;101130.97;5038195;28;20148;-59
2024/01/27 00:58:38;;;;;;;0.70;0.70;;;;;;;1.13;100.00;101134.31;5043948;28;20106;-59
2024/01/27 01:01:05;;;;;;;0.70;0.70;;;;;;;1.12;100.00;101133.44;5041091;28;20461;-58
2024/01/27 01:03:33;;;;;;;0.77;0.77;;;;;;;1.15;100.00;101137.63;5042440;28;20303;-59
2024/01/27 01:06:00;;;;;;;0.70;0.70;;;;;;;1.07;100.00;101141.78;5040536;28;20152;-59
2024/01/27 01:08:27;;;;;;;0.75;0.75;;;;;;;1.15;100.00;101142.91;5039869;28;20156;-59
2024/01/27 01:10:55;;;;;;;0.70;0.70;;;;;;;0.99;100.00;101152.16;5039890;28;20045;-58
2024/01/27 01:13:22;;;;;;;0.63;0.63;;;;;;;1.00;100.00;101148.56;5038429;28;20052;-59
2024/01/27 01:15:49;;;;;;;0.70;0.70;;;;;;;0.99;100.00;101153.97;5038473;28;20053;-59
2024/01/27 01:18:16;;;;;;;0.70;0.70;;;;;;;0.89;100.00;101153.94;5040042;28;20044;-59
2024/01/27 01:20:45;;;;;;;0.73;0.73;;;;;;;0.91;100.00;101154.66;5019178;28;20719;-58
2024/01/27 01:23:13;;;;;;;0.75;0.75;;;;;;;0.97;100.00;101156.75;5042528;28;20056;-59
2024/01/27 01:25:40;;;;;;;0.75;0.75;;;;;;;0.80;100.00;101160.00;5042669;28;20053;-59
2024/01/27 01:28:07;;;;;;;0.80;0.80;;;;;;;0.75;100.00;101154.28;5041929;28;20064;-59
2024/01/27 01:30:34;;;;;;;0.70;0.70;;;;;;;0.78;100.00;101154.03;5039177;28;20114;-59
2024/01/27 01:33:01;;;;;;;0.63;0.63;;;;;;;0.90;100.00;101158.25;5039999;28;20072;-58
2024/01/27 01:35:29;;;;;;;0.90;0.90;;;;;;;0.80;100.00;101157.34;5042447;28;20431;-59
2024/01/27 01:37:57;;;;;;;0.60;0.60;;;;;;;0.75;100.00;101160.41;5041239;28;20881;-58
2024/01/27 01:40:24;;;;;;;0.73;0.73;;;;;;;0.80;100.00;101152.94;5042499;28;20127;-59
2024/01/27 01:42:52;;;;;;;0.70;0.70;;;;;;;0.85;100.00;101155.19;5042145;28;20425;-58
2024/01/27 01:45:20;;;;;;;0.75;0.75;;;;;;;0.90;100.00;101155.63;5023744;28;20049;-58
2024/01/27 01:47:47;;;;;;;0.80;0.80;;;;;;;0.78;100.00;101159.31;5041723;28;20124;-58
2024/01/27 01:50:14;;;;;;;0.80;0.80;;;;;;;0.68;100.00;101169.81;5042729;28;20446;-59
2024/01/27 01:52:41;;;;;;;0.90;0.90;;;;;;;0.66;100.00;101176.19;5042449;28;20057;-58
2024/01/27 01:55:10;;;;;;;0.85;0.85;;;;;;;0.80;100.00;101181.13;5042041;28;20430;-59
2024/01/27 01:57:39;;;;;;;0.80;0.80;;;;;;;0.73;100.00;101178.19;5038932;28;20045;-58
2024/01/27 02:00:08;;;;;;;0.70;0.70;;;;;;;0.72;100.00;101179.13;5040911;28;20505;-58
2024/01/27 02:02:39;;;;;;;0.73;0.73;;;;;;;0.76;100.00;101177.09;5040512;28;20040;-59
2024/01/27 02:05:08;;;;;;;0.77;0.77;;;;;;;0.66;100.00;101178.84;5041238;28;20053;-59
2024/01/27 02:07:35;;;;;;;0.80;0.80;;;;;;;0.51;100.00;101179.16;5024260;28;20048;-59
2024/01/27 02:10:03;;;;;;;0.73;0.73;;;;;;;0.31;100.00;101175.56;5038967;28;20041;-58
2024/01/27 02:12:31;;;;;;;0.70;0.70;;;;;;;0.19;100.00;101168.66;5023961;28;20107;-58
2024/01/27 02:14:58;;;;;;;0.93;0.93;;;;;;;0.19;100.00;101168.66;5040629;28;20467;-59
2024/01/27 02:17:25;;;;;;;0.80;0.80;;;;;;;0.15;100.00;101162.81;5041738;28;20464;-58
2024/01/27 02:19:53;;;;;;;0.82;0.82;;;;;;;0.09;100.00;101162.50;5042801;28;20044;-59
2024/01/27 02:22:20;;;;;;;0.82;0.82;;;;;;;-0.03;100.00;101173.06;5038715;28;20072;-59
2024/01/27 02:24:49;;;;;;;0.70;0.70;;;;;;;-0.06;100.00;101161.94;5040572;28;20103;-58
2024/01/27 02:27:16;;;;;;;0.60;0.60;;;;;;;-0.04;100.00;101157.41;5040806;28;20041;-59
2024/01/27 02:29:43;;;;;;;0.90;0.90;;;;;;;-0.06;100.00;101167.22;5041132;28;20037;-59
2024/01/27 02:32:10;;;;;;;0.90;0.90;;;;;;;-0.04;100.00;101170.56;5041536;28;20057;-58
2024/01/27 02:34:37;;;;;;;0.77;0.77;;;;;;;-0.14;100.00;101173.13;5043626;28;20565;-58
2024/01/27 02:37:05;;;;;;;0.90;0.90;;;;;;;-0.13;100.00;101168.69;5024684;28;20115;-58
2024/01/27 02:39:32;;;;;;;0.80;0.80;;;;;;;-0.20;100.00;101172.78;5042538;28;20537;-58
2024/01/27 02:42:01;;;;;;;0.80;0.80;;;;;;;-0.10;100.00;101185.09;5043692;28;20479;-58
2024/01/27 02:44:28;;;;;;;0.80;0.80;;;;;;;-0.15;100.00;101181.16;5042823;28;20096;-58
2024/01/27 02:46:55;;;;;;;0.90;0.90;;;;;;;-0.20;100.00;101184.19;5043561;28;20064;-59
2024/01/27 02:49:22;;;;;;;0.90;0.90;;;;;;;-0.28;100.00;101181.31;5045721;28;20049;-58
2024/01/27 02:51:49;;;;;;;0.90;0.90;;;;;;;-0.22;100.00;101181.66;5044059;28;20080;-58
2024/01/27 02:54:16;;;;;;;0.80;0.80;;;;;;;-0.26;100.00;101180.22;5042276;28;20049;-59
2024/01/27 02:56:43;;;;;;;0.80;0.80;;;;;;;-0.32;100.00;101178.09;5020084;28;20607;-59
2024/01/27 02:59:12;;;;;;;0.80;0.80;;;;;;;-0.35;100.00;101175.72;5043020;28;20073;-59
2024/01/27 03:01:39;;;;;;;0.70;0.70;;;;;;;-0.36;100.00;101174.03;5043864;28;20118;-59
2024/01/27 03:04:06;;;;;;;0.70;0.70;;;;;;;-0.34;100.00;101177.38;5041233;28;20057;-58
2024/01/27 03:06:34;;;;;;;0.77;0.77;;;;;;;-0.36;100.00;101174.03;5041393;28;20453;-58
2024/01/27 03:09:01;;;;;;;0.80;0.80;;;;;;;-0.40;100.00;101177.91;5025371;28;20040;-59
2024/01/27 03:11:28;;;;;;;0.70;0.70;;;;;;;-0.34;100.00;101177.38;5043486;28;20049;-58
2024/01/27 03:13:55;;;;;;;0.90;0.90;;;;;;;-0.40;100.00;101172.63;5042176;28;20085;-58
2024/01/27 03:16:23;;;;;;;0.80;0.80;;;;;;;-0.44;100.00;101168.53;5043715;28;20098;-59
2024/01/27 03:18:50;;;;;;;0.82;0.82;;;;;;;-0.38;100.00;101170.69;5044399;28;20041;-59
2024/01/27 03:21:17;;;;;;;0.90;0.90;;;;;;;-0.41;100.00;101176.19;5037136;28;20157;-59
2024/01/27 03:23:44;;;;;;;0.88;0.88;;;;;;;-0.47;100.00;101184.59;5042780;28;20147;-59
2024/01/27 03:26:11;;;;;;;0.90;0.90;;;;;;;-0.52;100.00;101182.34;5025349;28;20065;-58
2024/01/27 03:28:38;;;;;;;0.80;0.80;;;;;;;-0.57;100.00;101191.56;5043079;28;20788;-59
2024/01/27 03:31:05;;;;;;;1.00;1.00;;;;;;;-0.56;100.00;101185.34;5046051;28;20047;-58
2024/01/27 03:33:34;;;;;;;0.90;0.90;;;;;;;-0.54;100.00;101191.31;5044249;28;20049;-58
2024/01/27 03:36:01;;;;;;;0.80;0.80;;;;;;;-0.58;100.00;101201.25;5043794;28;20582;-59
2024/01/27 03:38:28;;;;;;;0.90;0.90;;;;;;;-0.58;100.00;101197.78;5018437;28;20056;-59
2024/01/27 03:40:55;;;;;;;0.90;0.90;;;;;;;-0.60;100.00;101194.44;5044114;28;20049;-58
2024/01/27 03:43:22;;;;;;;0.80;0.80;;;;;;;-0.60;100.00;101195.28;5042695;28;20091;-59
2024/01/27 03:45:49;;;;;;;0.80;0.80;;;;;;;-0.56;100.00;101198.50;5043148;28;20448;-59
2024/01/27 03:48:16;;;;;;;0.85;0.85;;;;;;;-0.54;100.00;101207.13;5045300;28;20091;-58
2024/01/27 03:50:45;;;;;;;0.90;0.90;;;;;;;-0.54;100.00;101207.13;5041443;28;20479;-58
2024/01/27 03:53:12;;;;;;;0.57;0.57;;;;;;;-0.61;100.00;101205.94;5028500;28;20167;-58
2024/01/27 03:55:39;;;;;;;0.90;0.90;;;;;;;-0.58;100.00;101200.41;5042919;28;20040;-58
2024/01/27 03:58:06;;;;;;;0.90;0.90;;;;;;;-0.54;100.00;101201.84;5042005;28;20046;-58
2024/01/27 04:00:33;;;;;;;0.80;0.80;;;;;;;-0.49;100.00;101200.53;5045643;28;20124;-59
2024/01/27 04:03:00;;;;;;;0.80;0.80;;;;;;;-0.59;100.00;101209.28;5042618;28;20045;-58
2024/01/27 04:05:29;;;;;;;0.90;0.90;;;;;;;-0.62;100.00;101207.75;5041545;28;20107;-58
2024/01/27 04:07:57;;;;;;;0.80;0.80;;;;;;;-0.61;100.00;101206.75;5042094;28;20075;-59
2024/01/27 04:10:24;;;;;;;0.80;0.80;;;;;;;-0.73;100.00;101219.09;5043071;28;20072;-59
2024/01/27 04:12:51;;;;;;;0.90;0.90;;;;;;;-0.72;100.00;101220.78;5024005;28;20056;-59
2024/01/27 04:15:18;;;;;;;0.90;0.90;;;;;;;-0.61;100.00;101212.03;5047494;28;20523;-59
2024/01/27 04:17:45;;;;;;;0.88;0.88;;;;;;;-0.63;100.00;101218.38;5042948;28;20048;-59
2024/01/27 04:20:12;;;;;;;0.90;0.90;;;;;;;-0.69;100.00;101220.53;5040088;28;20091;-59
2024/01/27 04:22:39;;;;;;;0.70;0.70;;;;;;;-0.60;100.00;101219.00;5044877;28;20118;-58
2024/01/27 04:25:08;;;;;;;0.80;0.80;;;;;;;-0.68;100.00;101211.66;5024068;28;20392;-59
2024/01/27 04:27:37;;;;;;;0.80;0.80;;;;;;;-0.62;100.00;101215.63;5042042;28;20438;-58
2024/01/27 04:30:06;;;;;;;0.80;0.80;;;;;;;-0.68;100.00;101216.94;5042088;28;20049;-59
2024/01/27 04:32:33;;;;;;;0.90;0.90;;;;;;;-0.59;100.00;101222.47;5042651;28;20051;-59
2024/01/27 04:35:00;;;;;;;0.90;0.90;;;;;;;-0.70;100.00;101215.38;5043050;28;20498;-58
2024/01/27 04:37:27;;;;;;;0.90;0.90;;;;;;;-0.67;100.00;101216.00;5043141;28;20060;-58
2024/01/27 04:39:54;;;;;;;0.90;0.90;;;;;;;-0.71;100.00;101222.47;5044039;28;20713;-59
2024/01/27 04:42:23;;;;;;;0.80;0.80;;;;;;;-0.68;100.00;101226.63;5038179;28;20122;-59
2024/01/27 04:44:50;;;;;;;0.80;0.80;;;;;;;-0.78;100.00;101217.78;5039367;28;20514;-58
2024/01/27 04:47:17;;;;;;;0.80;0.80;;;;;;;-0.80;100.00;101217.94;5042979;28;20399;-59
2024/01/27 04:49:44;;;;;;;0.82;0.82;;;;;;;-0.78;100.00;101230.97;5043193;28;20080;-59
2024/01/27 04:52:12;;;;;;;0.80;0.80;;;;;;;-0.84;100.00;101229.66;5045612;28;20135;-58
2024/01/27 04:54:39;;;;;;;0.80;0.80;;;;;;;-0.89;100.00;101229.16;5042336;28;20611;-58
2024/01/27 04:57:06;;;;;;;0.90;0.90;;;;;;;-0.90;100.00;101232.75;5040555;28;20053;-58
2024/01/27 04:59:34;;;;;;;0.80;0.80;;;;;;;-0.90;100.00;101233.59;5041989;28;21019;-58
2024/01/27 05:02:01;;;;;;;0.90;0.90;;;;;;;-1.00;100.00;101227.38;5039538;28;20048;-58
2024/01/27 05:04:28;;;;;;;0.88;0.88;;;;;;;-0.94;100.00;101236.59;5040694;28;20049;-58
2024/01/27 05:06:56;;;;;;;0.90;0.90;;;;;;;-0.97;100.00;101242.09;5040910;28;20080;-58
2024/01/27 05:09:23;;;;;;;0.90;0.90;;;;;;;-0.97;100.00;101244.72;5024360;28;20142;-58
2024/01/27 05:11:51;;;;;;;0.90;0.90;;;;;;;-0.94;100.00;101247.13;5041985;28;20052;-58
2024/01/27 05:14:18;;;;;;;0.90;0.90;;;;;;;-0.94;100.00;101244.47;5033941;28;20045;-58
2024/01/27 05:16:47;;;;;;;0.80;0.80;;;;;;;-0.99;100.00;101246.63;5041580;28;20608;-58
2024/01/27 05:19:15;;;;;;;1.00;1.00;;;;;;;-1.10;100.00;101242.19;5041774;28;20072;-58
2024/01/27 05:21:42;;;;;;;0.95;0.95;;;;;;;-1.13;100.00;101235.34;5041259;28;20070;-58
2024/01/27 05:24:09;;;;;;;0.90;0.90;;;;;;;-1.01;100.00;101235.38;5041488;28;20049;-58
2024/01/27 05:26:36;;;;;;;0.80;0.80;;;;;;;-1.00;100.00;101239.69;5041764;28;20495;-58
2024/01/27 05:29:03;;;;;;;0.90;0.90;;;;;;;-1.06;100.00;101232.28;5043274;28;20094;-58
2024/01/27 05:31:30;;;;;;;0.90;0.90;;;;;;;-1.06;100.00;101227.84;5042622;28;20098;-58
2024/01/27 05:33:59;;;;;;;0.88;0.88;;;;;;;-1.05;100.00;101226.03;5040556;28;20132;-58
2024/01/27 05:36:26;;;;;;;0.90;0.90;;;;;;;-1.05;100.00;101223.41;5017953;28;20068;-59
2024/01/27 05:38:54;;;;;;;0.80;0.80;;;;;;;-1.13;100.00;101238.00;5047066;28;20537;-58
2024/01/27 05:41:21;;;;;;;1.00;1.00;;;;;;;-1.24;100.00;101240.63;5042068;28;20068;-58
2024/01/27 05:43:48;;;;;;;0.90;0.90;;;;;;;-1.25;100.00;101243.34;5037986;28;20479;-58
2024/01/27 05:46:15;;;;;;;0.80;0.80;;;;;;;-1.26;100.00;101241.69;5043638;28;20526;-59
2024/01/27 05:48:42;;;;;;;1.00;1.00;;;;;;;-1.35;100.00;101232.69;5042437;28;20068;-58
2024/01/27 05:51:12;;;;;;;0.95;0.95;;;;;;;-1.28;100.00;101233.06;5041857;28;20041;-58
2024/01/27 05:53:39;;;;;;;0.98;0.98;;;;;;;-1.23;100.00;101242.28;5042456;28;20048;-58
2024/01/27 05:56:06;;;;;;;1.08;1.08;;;;;;;-1.33;100.00;101236.03;5018897;28;20133;-59
2024/01/27 05:58:33;;;;;;;1.00;1.00;;;;;;;-1.23;100.00;101251.97;5022581;28;20052;-58
2024/01/27 06:01:00;;;;;;;1.00;1.00;;;;;;;-1.22;100.00;101254.50;5040604;28;20056;-58
2024/01/27 06:03:27;;;;;;;0.80;0.80;;;;;;;-1.26;100.00;101253.03;5041734;28;20037;-58
2024/01/27 06:05:54;;;;;;;0.90;0.90;;;;;;;-1.27;100.00;101254.00;5037455;28;20053;-59
2024/01/27 06:08:23;;;;;;;0.80;0.80;;;;;;;-1.20;100.00;101252.59;5043348;28;20069;-58
2024/01/27 06:10:51;;;;;;;0.93;0.93;;;;;;;-0.96;100.00;101244.59;5046533;28;20095;-58
2024/01/27 06:13:18;;;;;;;0.98;0.98;;;;;;;-0.92;100.00;101240.78;5042682;28;20044;-59
2024/01/27 06:15:45;;;;;;;0.90;0.90;;;;;;;-0.96;100.00;101249.03;5046980;28;20458;-58
2024/01/27 06:18:12;;;;;;;0.88;0.88;;;;;;;-1.05;100.00;101250.56;5044920;28;20053;-59
2024/01/27 06:20:40;;;;;;;0.90;0.90;;;;;;;-1.02;100.00;101252.13;5045418;28;20401;-58
2024/01/27 06:23:07;;;;;;;0.98;0.98;;;;;;;-1.18;100.00;101245.41;5044768;28;20053;-59
2024/01/27 06:25:35;;;;;;;0.90;0.90;;;;;;;-1.16;100.00;101264.53;5045015;28;20517;-59
2024/01/27 06:28:02;;;;;;;0.90;0.90;;;;;;;-1.22;100.00;101257.13;5043524;28;20480;-59
2024/01/27 06:30:29;;;;;;;0.98;0.98;;;;;;;-1.23;100.00;101244.91;5045813;28;20052;-58
2024/01/27 06:32:56;;;;;;;0.80;0.80;;;;;;;-1.17;100.00;101252.34;5043685;28;20076;-59
2024/01/27 06:35:23;;;;;;;0.90;0.90;;;;;;;-1.21;100.00;101250.91;5046119;28;20048;-58
2024/01/27 06:37:51;;;;;;;0.90;0.90;;;;;;;-1.24;100.00;101255.56;5045678;28;20049;-58
2024/01/27 06:40:18;;;;;;;0.93;0.93;;;;;;;-1.16;100.00;101259.28;5043442;28;20780;-58
2024/01/27 06:42:47;;;;;;;0.90;0.90;;;;;;;-1.00;100.00;101263.38;5039834;28;20041;-58
2024/01/27 06:45:14;;;;;;;0.90;0.90;;;;;;;-1.04;100.00;101262.78;5042016;28;20056;-59
2024/01/27 06:47:41;;;;;;;0.90;0.90;;;;;;;-0.90;100.00;101259.94;5044080;28;20033;-59
2024/01/27 06:50:09;;;;;;;1.00;1.00;;;;;;;-0.77;100.00;101267.72;5043019;28;20604;-59
2024/01/27 06:52:36;;;;;;;0.90;0.90;;;;;;;-0.79;100.00;101259.09;5041515;28;20380;-59
2024/01/27 06:55:06;;;;;;;0.90;0.90;;;;;;;-1.03;100.00;101263.59;5044265;28;21076;-59
2024/01/27 06:57:33;;;;;;;1.00;1.00;;;;;;;-1.15;100.00;101265.38;5042393;28;20049;-58
2024/01/27 07:00:02;;;;;;;1.00;1.00;;;;;;;-1.31;100.00;101263.06;5042932;28;20095;-58
2024/01/27 07:02:29;;;;;;;0.90;0.90;;;;;;;-1.34;100.00;101265.94;5045010;28;20272;-59
2024/01/27 07:04:56;;;;;;;1.00;1.00;;;;;;;-1.30;100.00;101272.63;5043567;28;20091;-58
2024/01/27 07:07:25;;;;;;;0.90;0.90;;;;;;;-1.40;100.00;101266.41;5044862;28;20045;-59
2024/01/27 07:09:52;;;;;;;0.80;0.80;;;;;;;-1.33;100.00;101272.88;5022369;28;20057;-58
2024/01/27 07:12:19;;;;;;;1.00;1.00;;;;;;;-1.28;100.00;101281.25;5039622;28;20064;-59
2024/01/27 07:14:46;;;;;;;0.90;0.90;;;;;;;-1.29;100.00;101274.34;5043357;28;20045;-59
2024/01/27 07:17:15;;;;;;;0.88;0.88;;;;;;;-1.44;100.00;101276.31;5044462;28;20049;-58
2024/01/27 07:19:42;;;;;;;1.00;1.00;;;;;;;-1.46;100.00;101285.28;5043777;28;20049;-58
2024/01/27 07:22:09;;;;;;;1.00;1.00;;;;;;;-1.44;100.00;101291.25;5041698;28;20077;-58
2024/01/27 07:24:36;;;;;;;1.00;1.00;;;;;;;-1.50;100.00;101296.97;5042802;28;20156;-58
2024/01/27 07:27:03;;;;;;;0.90;0.90;;;;;;;-1.52;100.00;101299.72;5044971;28;20036;-58
2024/01/27 07:29:30;;;;;;;1.10;1.10;;;;;;;-1.50;100.00;101300.44;5044672;28;20132;-59
2024/01/27 07:31:57;;;;;;;0.95;0.95;;;;;;;-1.44;100.00;101296.53;5043071;28;20503;-59
2024/01/27 07:34:26;;;;;;;1.00;1.00;;;;;;;-1.53;100.00;101298.03;5042161;28;20049;-59
2024/01/27 07:36:53;;;;;;;1.00;1.00;;;;;;;-1.48;100.00;101284.53;5040160;28;20049;-59
2024/01/27 07:39:20;;;;;;;0.98;0.98;;;;;;;-1.48;100.00;101284.53;5025299;28;20110;-59
2024/01/27 07:41:48;;;;;;;0.90;0.90;;;;;;;-1.45;100.00;101281.69;5041138;28;20041;-59
2024/01/27 07:44:15;;;;;;;0.80;0.80;;;;;;;-1.42;100.00;101291.97;5038574;28;20140;-59
2024/01/27 07:46:43;;;;;;;1.10;1.10;;;;;;;-1.42;100.00;101290.19;5043820;28;20049;-58
2024/01/27 07:49:11;;;;;;;1.00;1.00;;;;;;;-1.44;100.00;101284.22;5043526;28;20041;-59
2024/01/27 07:51:40;;;;;;;1.08;1.08;;;;;;;-1.41;100.00;101280.50;5042028;28;20049;-59
2024/01/27 07:54:07;;;;;;;0.95;0.95;;;;;;;-1.27;100.00;101277.69;5042368;28;20049;-60
2024/01/27 07:56:34;;;;;;;0.90;0.90;;;;;;;-1.31;100.00;101276.22;5042789;28;20041;-59
2024/01/27 07:59:01;;;;;;;0.80;0.80;;;;;;;-1.31;100.00;101294.66;5041556;28;20067;-60
2024/01/27 08:01:28;;;;;;;1.00;1.00;;;;;;;-1.29;100.00;101299.81;5036664;28;20136;-59
2024/01/27 08:03:56;;;;;;;1.00;1.00;;;;;;;-1.25;100.00;101302.06;5041937;28;20052;-59
2024/01/27 08:06:28;;;;;;;0.90;0.90;;;;;;;-1.19;100.00;101298.16;5046252;28;20473;-60
2024/01/27 08:08:57;;;;;;;0.90;0.90;;;;;;;-1.14;100.00;101298.66;5038917;28;20452;-59
2024/01/27 08:11:24;;;;;;;0.70;0.70;;;;;;;-1.10;100.00;101300.94;5043682;28;20045;-59
2024/01/27 08:13:52;;;;;;;0.90;0.90;;;;;;;-0.63;100.00;101286.88;5045112;28;20037;-59
2024/01/27 08:16:19;;;;;;;0.90;0.90;;;;;;;0.20;100.00;101292.50;5042423;28;20043;-59
2024/01/27 08:18:46;;;;;;;1.05;1.05;;;;;;;0.26;100.00;101295.59;5025082;28;20085;-59
2024/01/27 08:21:13;;;;;;;0.82;0.82;;;;;;;0.62;100.00;101300.50;5024034;28;20494;-60
2024/01/27 08:23:40;;;;;;;1.00;1.00;;;;;;;0.48;100.00;101302.59;5043816;28;20469;-59
2024/01/27 08:26:08;;;;;;;1.00;1.00;;;;;;;0.84;100.00;101312.72;5041722;28;20080;-60
2024/01/27 08:28:35;;;;;;;0.82;0.82;;;;;;;0.62;100.00;101310.19;5047013;28;20045;-59
2024/01/27 08:31:03;;;;;;;0.90;0.90;;;;;;;0.21;100.00;101307.34;5040715;28;20495;-59
2024/01/27 08:33:30;;;;;;;0.95;0.95;;;;;;;0.30;100.00;101307.56;5025199;28;20041;-59
2024/01/27 08:35:57;;;;;;;0.93;0.93;;;;;;;-0.19;100.00;101295.72;5042134;28;20491;-60
2024/01/27 08:38:24;;;;;;;0.77;0.77;;;;;;;-0.05;100.00;101304.19;5043102;28;20547;-59
2024/01/27 08:40:51;;;;;;;0.90;0.90;;;;;;;-0.13;100.00;101308.38;5042282;28;20192;-60
2024/01/27 08:43:19;;;;;;;0.90;0.90;;;;;;;0.00;100.00;101303.84;5041977;28;20041;-59
2024/01/27 08:45:46;;;;;;;0.77;0.77;;;;;;;1.06;100.00;101306.47;5042553;28;20076;-59
2024/01/27 08:48:15;;;;;;;1.00;1.00;;;;;;;1.01;100.00;101308.69;5015272;28;20126;-59
2024/01/27 08:50:42;;;;;;;0.80;0.80;;;;;;;1.02;100.00;101310.38;5041814;28;20137;-59
2024/01/27 08:53:09;;;;;;;0.90;0.90;;;;;;;1.82;100.00;101305.28;5044231;28;20106;-59
2024/01/27 08:55:36;;;;;;;1.00;1.00;;;;;;;1.02;100.00;101320.06;5044914;28;20040;-60
2024/01/27 08:58:03;;;;;;;0.75;0.75;;;;;;;2.11;100.00;101318.59;5037952;28;20044;-59
2024/01/27 09:00:31;;;;;;;0.80;0.80;;;;;;;2.51;100.00;101325.63;5042402;28;20052;-59
2024/01/27 09:02:58;;;;;;;0.80;0.80;;;;;;;2.34;100.00;101325.31;5041985;28;20072;-59
2024/01/27 09:05:27;;;;;;;0.80;0.80;;;;;;;1.89;100.00;101331.06;5042233;28;20762;-59
2024/01/27 09:07:54;;;;;;;0.65;0.65;;;;;;;3.16;100.00;101321.38;5042257;28;20103;-59
2024/01/27 09:10:21;;;;;;;1.00;1.00;;;;;;;1.80;100.00;101315.16;5037678;28;20055;-59
2024/01/27 09:12:48;;;;;;;0.90;0.90;;;;;;;1.53;100.00;101323.72;5019547;28;20104;-59
2024/01/27 09:15:16;;;;;;;0.80;0.80;;;;;;;2.48;100.00;101318.78;5041504;28;20056;-59
2024/01/27 09:17:44;;;;;;;0.80;0.80;;;;;;;2.11;100.00;101323.88;5041047;28;20115;-60
2024/01/27 09:20:12;;;;;;;0.68;0.68;;;;;;;3.03;100.00;101315.53;5041402;28;20471;-59
2024/01/27 09:22:39;;;;;;;0.80;0.80;;;;;;;3.44;98.35;101318.78;5040654;28;20107;-60
2024/01/27 09:25:08;;;;;;;0.75;0.75;;;;;;;3.32;99.99;101317.28;5042588;28;20064;-61
2024/01/27 09:27:35;;;;;;;0.60;0.60;;;;;;;4.30;94.94;101310.53;5041771;28;20084;-59
2024/01/27 09:30:03;;;;;;;0.70;0.70;;;;;;;3.49;94.63;101315.69;5041710;28;20131;-59
2024/01/27 09:32:30;;;;;;;0.80;0.80;;;;;;;2.08;100.00;101324.16;5042757;28;20040;-59
2024/01/27 09:34:58;;;;;;;0.80;0.80;;;;;;;2.07;100.00;101322.47;5026509;28;20133;-59
2024/01/27 09:37:26;;;;;;;0.90;0.90;;;;;;;3.14;100.00;101323.31;5041365;28;20503;-59
2024/01/27 09:39:53;;;;;;;0.77;0.77;;;;;;;4.52;93.63;101320.72;5022500;28;20133;-60
2024/01/27 09:42:21;;;;;;;0.60;0.60;;;;;;;4.67;91.97;101322.84;5041739;28;20068;-60
2024/01/27 09:44:49;;;;;;;0.60;0.60;;;;;;;5.60;87.30;101336.44;5042829;28;20060;-59
2024/01/27 09:47:16;;;;;;;0.70;0.70;;;;;;;5.91;79.92;101334.06;5042141;28;20482;-60
2024/01/27 09:49:43;;;;;;;0.43;0.43;;;;;;;6.32;80.03;101346.72;5040148;28;20118;-60
2024/01/27 09:52:12;;;;;;;0.60;0.60;;;;;;;5.81;80.61;101352.81;5019537;28;20045;-62
2024/01/27 09:54:40;;;;;;;0.40;0.40;;;;;;;6.55;76.74;101353.09;5041878;28;20045;-60
2024/01/27 09:57:07;;;;;;;0.40;0.40;;;;;;;4.96;81.94;101343.81;5024032;28;20040;-60
2024/01/27 09:59:34;;;;;;;0.50;0.50;;;;;;;4.45;91.35;101345.38;5042631;28;20052;-60
2024/01/27 10:02:02;;;;;;;0.50;0.50;;;;;;;4.01;91.61;101346.03;5028632;28;20052;-60
2024/01/27 10:04:29;;;;;;;0.43;0.43;;;;;;;5.88;83.68;101336.22;5044399;28;20442;-60
2024/01/27 10:06:56;;;;;;;0.40;0.40;;;;;;;5.70;83.25;101352.28;5043281;28;20412;-60
2024/01/27 10:09:24;;;;;;;0.40;0.40;;;;;;;6.23;79.87;101359.19;5023847;28;20041;-59
2024/01/27 10:11:52;;;;;;;0.50;0.50;;;;;;;5.32;84.58;101360.53;5021171;28;20068;-59
2024/01/27 10:14:19;;;;;;;0.50;0.50;;;;;;;5.48;88.64;101370.44;5041723;28;20159;-60
2024/01/27 10:16:46;;;;;;;0.40;0.40;;;;;;;6.14;81.54;101362.78;5042269;28;20472;-60
2024/01/27 10:19:15;;;;;;;0.40;0.40;;;;;;;5.98;79.84;101361.75;5021423;28;20200;-59
2024/01/27 10:21:42;;;;;;;0.40;0.40;;;;;;;6.60;77.52;101349.94;5041977;28;20383;-60
2024/01/27 10:24:09;;;;;;;0.40;0.40;;;;;;;6.14;79.35;101342.34;5041555;28;20148;-59
2024/01/27 10:26:37;;;;;;;0.50;0.50;;;;;;;5.84;80.75;101349.00;5040671;28;20037;-59
2024/01/27 10:29:05;;;;;;;0.40;0.40;;;;;;;5.89;80.73;101351.19;5039854;28;20053;-59
2024/01/27 10:31:34;;;;;;;0.40;0.40;;;;;;;6.26;80.81;101364.16;5041682;28;20041;-59
2024/01/27 10:34:03;;;;;;;0.40;0.40;;;;;;;6.61;78.07;101372.91;5043582;28;20037;-60
2024/01/27 10:36:40;;;;;;;0.50;0.50;;;;;;;5.86;81.15;101372.81;5041340;28;20045;-59
2024/01/27 10:39:16;;;;;;;0.40;0.40;;;;;;;6.44;79.69;101361.38;5040011;28;20312;-59
2024/01/27 10:41:45;;;;;;;0.47;0.47;;;;;;;6.51;78.97;101367.72;5040823;28;20123;-59
2024/01/27 10:44:12;;;;;;;0.40;0.40;;;;;;;6.21;79.56;101354.00;5037579;28;20576;-60
2024/01/27 10:46:39;;;;;;;0.35;0.35;;;;;;;5.44;81.89;101346.97;5041104;28;20052;-59
2024/01/27 10:49:06;;;;;;;0.40;0.40;;;;;;;6.17;81.95;101352.69;5025200;28;20103;-59
2024/01/27 10:51:36;;;;;;;0.30;0.30;;;;;;;5.78;80.32;101355.81;5021801;28;20049;-59
2024/01/27 10:54:07;;;;;;;0.40;0.40;;;;;;;5.77;84.34;101332.84;5038581;28;20041;-59
2024/01/27 10:56:34;;;;;;;0.40;0.40;;;;;;;5.82;83.52;101338.53;5038075;28;20298;-59
2024/01/27 10:59:02;;;;;;;0.50;0.50;;;;;;;4.68;92.64;101332.47;5041055;28;20041;-59
2024/01/27 11:01:31;;;;;;;0.40;0.40;;;;;;;4.07;98.19;101337.50;5046670;28;20049;-59
2024/01/27 11:03:58;;;;;;;0.50;0.50;;;;;;;4.36;95.17;101330.31;5041540;28;20053;-59
2024/01/27 11:06:26;;;;;;;0.50;0.50;;;;;;;5.04;94.54;101332.41;5041294;28;20574;-59
2024/01/27 11:08:53;;;;;;;0.50;0.50;;;;;;;5.97;88.74;101329.97;5038140;28;20061;-59
2024/01/27 11:11:20;;;;;;;0.60;0.60;;;;;;;5.28;88.74;101334.41;5041921;28;20388;-59
2024/01/27 11:13:48;;;;;;;0.50;0.50;;;;;;;5.14;90.58;101336.66;5040713;28;20492;-59
2024/01/27 11:16:18;;;;;;;0.50;0.50;;;;;;;5.95;88.04;101329.31;5041471;28;20138;-59
2024/01/27 11:18:45;;;;;;;0.30;0.30;;;;;;;6.35;83.06;101335.75;5042819;28;20511;-59
2024/01/27 11:21:14;;;;;;;0.50;0.50;;;;;;;5.63;86.81;101318.31;5041982;28;20052;-58
2024/01/27 11:23:42;;;;;;;0.40;0.40;;;;;;;6.02;87.94;101315.19;5037996;28;20124;-58